createdAt,value
2022-09-15T00:00:22.260Z,0.00
2022-09-15T00:01:22.357Z,0.00
2022-09-15T00:02:22.345Z,0.00
2022-09-15T00:03:22.267Z,0.00
2022-09-15T00:04:22.263Z,0.00
2022-09-15T00:05:22.250Z,0.00
2022-09-15T00:06:22.289Z,0.00
2022-09-15T00:07:22.245Z,0.00
2022-09-15T00:08:22.251Z,0.00
2022-09-15T00:09:22.268Z,0.00
2022-09-15T00:10:22.265Z,0.00
2022-09-15T00:11:22.268Z,0.00
2022-09-15T00:12:22.257Z,0.00
2022-09-15T00:13:22.254Z,0.00
2022-09-15T00:14:22.285Z,0.00
2022-09-15T00:15:22.282Z,0.00
2022-09-15T00:16:22.355Z,0.00
2022-09-15T00:17:22.267Z,0.00
2022-09-15T00:18:22.259Z,0.00
2022-09-15T00:19:22.275Z,0.00
2022-09-15T00:20:22.261Z,0.00
2022-09-15T00:21:22.277Z,0.00
2022-09-15T00:22:22.277Z,0.00
2022-09-15T00:23:22.257Z,0.00
2022-09-15T00:24:22.260Z,0.00
2022-09-15T00:25:22.268Z,0.00
2022-09-15T00:26:22.296Z,0.00
2022-09-15T00:27:22.281Z,0.00
2022-09-15T00:28:22.281Z,0.00
2022-09-15T00:29:22.268Z,0.00
2022-09-15T00:30:22.265Z,0.00
2022-09-15T00:31:22.315Z,0.00
2022-09-15T00:32:22.280Z,0.00
2022-09-15T00:33:22.290Z,0.00
2022-09-15T00:34:22.289Z,0.00
2022-09-15T00:35:22.285Z,0.00
2022-09-15T00:36:22.352Z,0.00
2022-09-15T00:37:22.285Z,0.00
2022-09-15T00:38:22.292Z,0.00
2022-09-15T00:39:22.364Z,0.00
2022-09-15T00:40:22.369Z,0.00
2022-09-15T00:41:22.308Z,0.00
2022-09-15T00:42:22.294Z,0.00
2022-09-15T00:43:22.304Z,0.00
2022-09-15T00:44:22.297Z,0.00
2022-09-15T00:45:22.297Z,0.00
2022-09-15T00:46:22.322Z,0.00
2022-09-15T00:47:22.291Z,0.00
2022-09-15T00:48:22.299Z,0.00
2022-09-15T00:49:22.310Z,0.00
2022-09-15T00:50:22.328Z,0.00
2022-09-15T00:51:22.296Z,0.00
2022-09-15T00:52:22.295Z,0.00
2022-09-15T00:53:22.291Z,0.00
2022-09-15T00:54:22.305Z,0.00
2022-09-15T00:55:22.300Z,0.00
2022-09-15T00:56:22.319Z,0.00
2022-09-15T00:57:22.317Z,0.00
2022-09-15T00:58:22.337Z,0.00
2022-09-15T00:59:22.304Z,0.00
2022-09-15T01:00:22.316Z,0.00
2022-09-15T01:01:22.541Z,0.00
2022-09-15T01:02:22.375Z,0.00
2022-09-15T01:03:22.315Z,0.00
2022-09-15T01:04:22.336Z,0.00
2022-09-15T01:05:22.327Z,0.00
2022-09-15T01:06:22.332Z,0.00
2022-09-15T01:07:22.310Z,0.00
2022-09-15T01:08:22.320Z,0.00
2022-09-15T01:09:22.332Z,0.00
2022-09-15T01:10:22.330Z,0.00
2022-09-15T01:11:22.326Z,0.00
2022-09-15T01:12:22.327Z,0.00
2022-09-15T01:13:22.331Z,0.00
2022-09-15T01:14:22.341Z,0.00
2022-09-15T01:15:22.350Z,0.00
2022-09-15T01:16:22.382Z,0.00
2022-09-15T01:17:22.329Z,0.00
2022-09-15T01:18:22.324Z,0.00
2022-09-15T01:19:22.341Z,0.00
2022-09-15T01:20:22.345Z,0.00
2022-09-15T01:21:22.333Z,0.00
2022-09-15T01:22:22.333Z,0.00
2022-09-15T01:23:22.335Z,0.00
2022-09-15T01:24:22.337Z,0.00
2022-09-15T01:25:22.346Z,0.00
2022-09-15T01:26:22.335Z,0.00
2022-09-15T01:27:41.089Z,0.00
2022-09-15T01:28:22.343Z,0.00
2022-09-15T01:29:22.343Z,0.00
2022-09-15T01:30:22.357Z,0.00
2022-09-15T01:31:22.410Z,0.00
2022-09-15T01:32:22.349Z,0.00
2022-09-15T01:33:22.340Z,0.00
2022-09-15T01:34:22.332Z,0.00
2022-09-15T01:35:22.345Z,0.00
2022-09-15T01:36:22.350Z,0.00
2022-09-15T01:37:22.359Z,0.00
2022-09-15T01:38:22.356Z,0.00
2022-09-15T01:39:22.352Z,0.00
2022-09-15T01:40:22.383Z,0.00
2022-09-15T01:41:22.366Z,0.00
2022-09-15T01:42:22.347Z,0.00
2022-09-15T01:43:22.381Z,0.00
2022-09-15T01:44:22.351Z,0.00
2022-09-15T01:45:22.682Z,0.00
2022-09-15T01:46:22.364Z,0.00
2022-09-15T01:47:22.342Z,0.00
2022-09-15T01:48:22.343Z,0.00
2022-09-15T01:49:22.355Z,0.00
2022-09-15T01:50:22.358Z,0.00
2022-09-15T01:51:22.358Z,0.00
2022-09-15T01:52:22.362Z,0.00
2022-09-15T01:53:22.368Z,0.00
2022-09-15T01:54:22.392Z,0.00
2022-09-15T01:55:22.388Z,0.00
2022-09-15T01:56:22.379Z,0.00
2022-09-15T01:57:22.365Z,0.00
2022-09-15T01:58:22.358Z,0.00
2022-09-15T01:59:22.355Z,0.00
2022-09-15T02:00:22.377Z,0.00
2022-09-15T02:01:22.468Z,0.00
2022-09-15T02:02:22.447Z,0.00
2022-09-15T02:03:22.390Z,0.00
2022-09-15T02:04:22.381Z,0.00
2022-09-15T02:05:22.386Z,0.00
2022-09-15T02:06:22.363Z,0.00
2022-09-15T02:07:22.358Z,0.00
2022-09-15T02:08:22.356Z,0.00
2022-09-15T02:09:22.367Z,0.00
2022-09-15T02:10:22.389Z,0.00
2022-09-15T02:11:22.367Z,0.00
2022-09-15T02:12:22.360Z,0.00
2022-09-15T02:13:22.366Z,0.00
2022-09-15T02:14:22.395Z,0.00
2022-09-15T02:15:22.368Z,0.00
2022-09-15T02:16:22.454Z,0.00
2022-09-15T02:17:22.389Z,0.00
2022-09-15T02:18:22.364Z,0.00
2022-09-15T02:19:22.412Z,0.00
2022-09-15T02:20:22.394Z,0.00
2022-09-15T02:21:22.368Z,0.00
2022-09-15T02:22:22.388Z,0.00
2022-09-15T02:23:22.391Z,0.00
2022-09-15T02:24:22.387Z,0.00
2022-09-15T02:25:22.381Z,0.00
2022-09-15T02:26:22.381Z,0.00
2022-09-15T02:27:22.392Z,0.00
2022-09-15T02:28:22.397Z,0.00
2022-09-15T02:29:22.371Z,0.00
2022-09-15T02:30:22.389Z,0.00
2022-09-15T02:31:22.418Z,0.00
2022-09-15T02:32:22.380Z,0.00
2022-09-15T02:33:22.393Z,0.00
2022-09-15T02:34:22.376Z,0.00
2022-09-15T02:35:22.400Z,0.00
2022-09-15T02:36:22.391Z,0.00
2022-09-15T02:37:22.393Z,0.00
2022-09-15T02:38:22.386Z,0.00
2022-09-15T02:39:22.387Z,0.00
2022-09-15T02:40:22.469Z,0.00
2022-09-15T02:41:22.387Z,0.00
2022-09-15T02:42:22.400Z,0.00
2022-09-15T02:43:22.404Z,0.00
2022-09-15T02:44:22.380Z,0.00
2022-09-15T02:45:22.427Z,0.00
2022-09-15T02:46:22.410Z,0.00
2022-09-15T02:47:22.389Z,0.00
2022-09-15T02:48:22.418Z,0.00
2022-09-15T02:49:22.380Z,0.00
2022-09-15T02:50:22.387Z,0.00
2022-09-15T02:51:30.836Z,0.00
2022-09-15T02:52:30.862Z,0.00
2022-09-15T02:53:22.402Z,0.00
2022-09-15T02:54:29.947Z,0.00
2022-09-15T02:55:30.417Z,0.00
2022-09-15T02:56:22.409Z,0.00
2022-09-15T02:57:30.476Z,0.00
2022-09-15T02:58:22.398Z,0.00
2022-09-15T02:59:29.936Z,0.00
2022-09-15T03:00:22.404Z,0.00
2022-09-15T03:01:22.484Z,0.00
2022-09-15T03:02:22.442Z,0.00
2022-09-15T03:03:22.385Z,0.00
2022-09-15T03:08:02.934Z,0.00
2022-09-15T03:09:02.958Z,0.00
2022-09-15T03:10:03.267Z,0.00
2022-09-15T03:11:03.701Z,0.00
2022-09-15T03:12:04.051Z,0.00
2022-09-15T03:13:04.123Z,0.00
2022-09-15T03:14:03.455Z,0.00
2022-09-15T03:15:03.459Z,0.00
2022-09-15T03:16:03.527Z,0.00
2022-09-15T03:17:03.961Z,0.00
2022-09-15T03:18:03.141Z,0.00
2022-09-15T03:19:03.460Z,0.00
2022-09-15T03:20:02.971Z,0.00
2022-09-15T03:21:03.731Z,0.00
2022-09-15T03:22:03.462Z,0.00
2022-09-15T03:23:03.188Z,0.00
2022-09-15T03:24:03.117Z,0.00
2022-09-15T03:25:04.989Z,0.00
2022-09-15T03:26:10.999Z,0.00
2022-09-15T03:27:15.965Z,0.00
2022-09-15T03:28:05.020Z,0.00
2022-09-15T03:29:05.463Z,0.00
2022-09-15T03:30:04.607Z,0.00
2022-09-15T03:31:02.999Z,0.00
2022-09-15T03:32:02.994Z,0.00
2022-09-15T03:33:07.977Z,0.00
2022-09-15T03:34:04.499Z,0.00
2022-09-15T03:35:03.967Z,0.00
2022-09-15T03:36:03.971Z,0.00
2022-09-15T03:37:03.474Z,0.00
2022-09-15T03:38:05.483Z,0.00
2022-09-15T03:39:06.983Z,0.00
2022-09-15T03:40:05.266Z,0.00
2022-09-15T03:41:07.965Z,0.00
2022-09-15T03:42:05.967Z,0.00
2022-09-15T03:43:03.084Z,0.00
2022-09-15T03:44:08.976Z,0.00
2022-09-15T03:45:07.486Z,0.00
2022-09-15T03:46:07.088Z,0.00
2022-09-15T03:47:02.923Z,0.00
2022-09-15T03:48:02.916Z,0.00
2022-09-15T03:49:02.909Z,0.00
2022-09-15T03:50:02.946Z,0.00
2022-09-15T03:51:02.971Z,0.00
2022-09-15T03:52:03.514Z,0.00
2022-09-15T03:53:02.916Z,0.00
2022-09-15T03:54:02.909Z,0.00
2022-09-15T03:55:02.919Z,0.00
2022-09-15T03:56:02.909Z,0.00
2022-09-15T03:57:02.926Z,0.00
2022-09-15T03:58:03.269Z,0.00
2022-09-15T03:59:06.970Z,0.00
2022-09-15T04:00:03.479Z,0.00
2022-09-15T04:01:04.529Z,0.00
2022-09-15T04:02:03.020Z,0.00
2022-09-15T04:03:02.962Z,0.00
2022-09-15T04:04:02.922Z,0.00
2022-09-15T04:05:02.940Z,0.00
2022-09-15T04:06:02.921Z,0.00
2022-09-15T04:07:02.933Z,0.00
2022-09-15T04:08:03.212Z,0.00
2022-09-15T04:09:02.913Z,0.00
2022-09-15T04:10:02.941Z,0.00
2022-09-15T04:11:02.969Z,0.00
2022-09-15T04:12:03.477Z,0.00
2022-09-15T04:13:03.478Z,0.00
2022-09-15T04:14:02.938Z,0.00
2022-09-15T04:17:11.538Z,0.00
2022-09-15T04:20:37.517Z,0.00
2022-09-15T04:21:48.530Z,4.00
2022-09-15T04:25:59.153Z,4.00
2022-09-15T04:26:59.201Z,0.00
2022-09-15T04:36:22.193Z,12.00
2022-09-15T04:37:21.967Z,12.00
2022-09-15T04:38:21.933Z,12.00
2022-09-15T04:39:22.634Z,16.00
2022-09-15T04:40:21.974Z,16.00
2022-09-15T04:41:21.924Z,20.00
2022-09-15T04:42:21.958Z,24.00
2022-09-15T04:43:21.922Z,24.00
2022-09-15T04:44:21.925Z,24.00
2022-09-15T04:45:21.921Z,24.00
2022-09-15T04:46:21.949Z,28.00
2022-09-15T04:47:21.945Z,32.00
2022-09-15T04:48:21.908Z,32.00
2022-09-15T04:49:21.910Z,36.00
2022-09-15T04:50:21.921Z,40.00
2022-09-15T04:51:21.918Z,44.00
2022-09-15T04:52:21.943Z,44.00
2022-09-15T04:53:21.933Z,48.00
2022-09-15T04:54:21.913Z,52.00
2022-09-15T04:55:21.924Z,52.00
2022-09-15T04:56:21.946Z,56.00
2022-09-15T04:57:21.936Z,60.00
2022-09-15T04:58:21.917Z,64.00
2022-09-15T04:59:21.945Z,68.00
2022-09-15T05:00:21.939Z,72.00
2022-09-15T05:01:21.996Z,76.00
2022-09-15T05:02:22.067Z,80.00
2022-09-15T05:03:21.923Z,80.00
2022-09-15T05:04:21.924Z,84.00
2022-09-15T05:05:21.913Z,92.00
2022-09-15T05:06:21.930Z,96.00
2022-09-15T05:07:21.931Z,100.00
2022-09-15T05:08:21.928Z,104.00
2022-09-15T05:09:21.932Z,108.00
2022-09-15T05:10:21.942Z,112.00
2022-09-15T05:11:21.932Z,112.00
2022-09-15T05:12:21.932Z,120.00
2022-09-15T05:13:21.927Z,124.00
2022-09-15T05:14:21.927Z,128.00
2022-09-15T05:15:21.939Z,132.00
2022-09-15T05:16:21.967Z,136.00
2022-09-15T05:17:25.068Z,144.00
2022-09-15T05:18:21.923Z,148.00
2022-09-15T05:19:21.917Z,152.00
2022-09-15T05:20:21.958Z,160.00
2022-09-15T05:21:21.923Z,164.00
2022-09-15T05:22:21.925Z,168.00
2022-09-15T05:23:21.958Z,176.00
2022-09-15T05:24:21.948Z,180.00
2022-09-15T05:25:21.931Z,184.00
2022-09-15T05:26:21.928Z,184.00
2022-09-15T05:27:21.933Z,196.00
2022-09-15T05:28:22.026Z,200.00
2022-09-15T05:29:21.938Z,204.00
2022-09-15T05:30:37.690Z,208.00
2022-09-15T05:31:21.978Z,216.00
2022-09-15T05:32:21.943Z,224.00
2022-09-15T05:33:21.921Z,228.00
2022-09-15T05:34:22.316Z,232.00
2022-09-15T05:35:21.939Z,240.00
2022-09-15T05:36:21.952Z,248.00
2022-09-15T05:37:21.939Z,252.00
2022-09-15T05:38:21.953Z,256.00
2022-09-15T05:39:21.994Z,260.00
2022-09-15T05:40:22.015Z,260.00
2022-09-15T05:41:22.066Z,268.00
2022-09-15T05:42:21.929Z,276.00
2022-09-15T05:43:21.933Z,284.00
2022-09-15T05:44:21.946Z,296.00
2022-09-15T05:45:21.936Z,312.00
2022-09-15T05:46:22.049Z,316.00
2022-09-15T05:47:21.941Z,320.00
2022-09-15T05:48:21.942Z,324.00
2022-09-15T05:49:21.947Z,328.00
2022-09-15T05:50:21.924Z,340.00
2022-09-15T05:51:21.940Z,344.00
2022-09-15T05:52:21.934Z,360.00
2022-09-15T05:53:21.926Z,380.00
2022-09-15T05:54:21.925Z,420.00
2022-09-15T05:55:21.923Z,460.00
2022-09-15T05:56:21.936Z,496.00
2022-09-15T05:57:21.963Z,528.00
2022-09-15T05:58:21.946Z,544.00
2022-09-15T05:59:21.934Z,564.00
2022-09-15T06:00:21.927Z,588.00
2022-09-15T06:01:22.048Z,624.00
2022-09-15T06:02:22.036Z,648.00
2022-09-15T06:03:25.303Z,680.00
2022-09-15T06:04:21.929Z,712.00
2022-09-15T06:05:21.969Z,732.00
2022-09-15T06:06:22.158Z,744.00
2022-09-15T06:07:21.930Z,752.00
2022-09-15T06:08:21.963Z,748.00
2022-09-15T06:09:21.943Z,752.00
2022-09-15T06:10:21.942Z,752.00
2022-09-15T06:11:21.939Z,808.00
2022-09-15T06:12:21.956Z,872.00
2022-09-15T06:13:21.945Z,976.00
2022-09-15T06:14:21.960Z,1012.00
2022-09-15T06:15:21.942Z,1100.00
2022-09-15T06:16:22.026Z,1160.00
2022-09-15T06:17:21.950Z,1216.00
2022-09-15T06:18:21.950Z,900.00
2022-09-15T06:19:21.974Z,1356.00
2022-09-15T06:20:21.944Z,1496.00
2022-09-15T06:21:21.948Z,1632.00
2022-09-15T06:22:21.939Z,1720.00
2022-09-15T06:23:21.950Z,1820.00
2022-09-15T06:24:21.966Z,1880.00
2022-09-15T06:25:21.954Z,1980.00
2022-09-15T06:26:21.949Z,2136.00
2022-09-15T06:27:21.943Z,2204.00
2022-09-15T06:28:21.957Z,2300.00
2022-09-15T06:29:21.948Z,2564.00
2022-09-15T06:30:21.968Z,2164.00
2022-09-15T06:31:21.987Z,2452.00
2022-09-15T06:32:21.983Z,2132.00
2022-09-15T06:33:21.988Z,2668.00
2022-09-15T06:34:22.015Z,1044.00
2022-09-15T06:35:22.004Z,804.00
2022-09-15T06:36:21.970Z,808.00
2022-09-15T06:37:21.989Z,1896.00
2022-09-15T06:38:21.962Z,1104.00
2022-09-15T06:39:21.981Z,1036.00
2022-09-15T06:40:22.014Z,3436.00
2022-09-15T06:41:22.047Z,3428.00
2022-09-15T06:42:21.988Z,3512.00
2022-09-15T06:43:21.970Z,1608.00
2022-09-15T06:44:21.972Z,2104.00
2022-09-15T06:45:21.969Z,1060.00
2022-09-15T06:46:22.015Z,876.00
2022-09-15T06:47:21.998Z,916.00
2022-09-15T06:48:24.729Z,996.00
2022-09-15T06:49:22.042Z,912.00
2022-09-15T06:50:21.992Z,1104.00
2022-09-15T06:51:21.986Z,992.00
2022-09-15T06:52:21.990Z,964.00
2022-09-15T06:53:22.015Z,1000.00
2022-09-15T06:54:22.023Z,1364.00
2022-09-15T06:55:22.001Z,1220.00
2022-09-15T06:56:21.982Z,1308.00
2022-09-15T06:57:22.007Z,1468.00
2022-09-15T06:58:21.989Z,1008.00
2022-09-15T06:59:22.029Z,984.00
2022-09-15T07:00:22.002Z,976.00
2022-09-15T07:01:22.022Z,876.00
2022-09-15T07:02:22.140Z,920.00
2022-09-15T07:03:22.138Z,880.00
2022-09-15T07:04:22.012Z,944.00
2022-09-15T07:05:22.006Z,1036.00
2022-09-15T07:06:22.027Z,1128.00
2022-09-15T07:07:22.015Z,1056.00
2022-09-15T07:08:22.017Z,1264.00
2022-09-15T07:09:22.023Z,1076.00
2022-09-15T07:10:22.026Z,1248.00
2022-09-15T07:11:22.042Z,1128.00
2022-09-15T07:12:22.018Z,1744.00
2022-09-15T07:13:22.034Z,1020.00
2022-09-15T07:14:22.033Z,1212.00
2022-09-15T07:15:22.037Z,1008.00
2022-09-15T07:16:22.106Z,1104.00
2022-09-15T07:17:22.052Z,1204.00
2022-09-15T07:18:22.055Z,1180.00
2022-09-15T07:19:22.056Z,1500.00
2022-09-15T07:20:22.047Z,1220.00
2022-09-15T07:21:22.039Z,988.00
2022-09-15T07:22:22.032Z,976.00
2022-09-15T07:23:22.047Z,968.00
2022-09-15T07:24:22.065Z,912.00
2022-09-15T07:25:22.045Z,1028.00
2022-09-15T07:26:22.086Z,1232.00
2022-09-15T07:27:22.062Z,996.00
2022-09-15T07:28:22.449Z,1076.00
2022-09-15T07:29:22.083Z,976.00
2022-09-15T07:30:22.060Z,880.00
2022-09-15T07:31:22.100Z,1020.00
2022-09-15T07:32:22.069Z,1052.00
2022-09-15T07:33:22.097Z,1176.00
2022-09-15T07:34:22.098Z,1092.00
2022-09-15T07:35:22.068Z,1572.00
2022-09-15T07:36:22.078Z,1328.00
2022-09-15T07:37:22.111Z,852.00
2022-09-15T07:38:22.091Z,856.00
2022-09-15T07:39:22.065Z,872.00
2022-09-15T07:40:22.132Z,944.00
2022-09-15T07:41:22.064Z,912.00
2022-09-15T07:42:22.127Z,1008.00
2022-09-15T07:43:22.091Z,1020.00
2022-09-15T07:44:22.078Z,964.00
2022-09-15T07:45:22.125Z,836.00
2022-09-15T07:46:22.084Z,804.00
2022-09-15T07:47:22.082Z,580.00
2022-09-15T07:48:25.773Z,580.00
2022-09-15T07:49:22.100Z,628.00
2022-09-15T07:50:22.100Z,840.00
2022-09-15T07:51:22.116Z,816.00
2022-09-15T07:52:22.096Z,1212.00
2022-09-15T07:53:22.122Z,1092.00
2022-09-15T07:54:23.059Z,856.00
2022-09-15T07:55:22.104Z,888.00
2022-09-15T07:56:22.123Z,1116.00
2022-09-15T07:57:22.123Z,1096.00
2022-09-15T07:58:22.105Z,1340.00
2022-09-15T07:59:22.122Z,900.00
2022-09-15T08:00:22.153Z,696.00
2022-09-15T08:01:22.275Z,572.00
2022-09-15T08:02:22.234Z,476.00
2022-09-15T08:03:22.125Z,516.00
2022-09-15T08:04:22.139Z,776.00
2022-09-15T08:05:22.104Z,964.00
2022-09-15T08:06:22.109Z,1196.00
2022-09-15T08:07:22.112Z,988.00
2022-09-15T08:08:22.118Z,1272.00
2022-09-15T08:09:22.129Z,972.00
2022-09-15T08:10:22.176Z,1040.00
2022-09-15T08:11:22.112Z,1104.00
2022-09-15T08:12:22.127Z,1188.00
2022-09-15T08:13:22.129Z,1316.00
2022-09-15T08:14:22.145Z,944.00
2022-09-15T08:15:22.141Z,716.00
2022-09-15T08:16:22.194Z,1008.00
2022-09-15T08:17:22.130Z,1052.00
2022-09-15T08:18:22.151Z,1308.00
2022-09-15T08:19:22.164Z,1340.00
2022-09-15T08:20:22.147Z,1244.00
2022-09-15T08:21:22.184Z,1184.00
2022-09-15T08:22:22.135Z,1352.00
2022-09-15T08:23:22.163Z,1068.00
2022-09-15T08:24:22.148Z,904.00
2022-09-15T08:25:22.170Z,984.00
2022-09-15T08:26:22.157Z,1104.00
2022-09-15T08:27:22.213Z,1156.00
2022-09-15T08:28:22.161Z,1228.00
2022-09-15T08:29:22.156Z,1104.00
2022-09-15T08:30:22.175Z,1300.00
2022-09-15T08:31:22.224Z,1408.00
2022-09-15T08:32:22.159Z,1444.00
2022-09-15T08:33:22.167Z,1464.00
2022-09-15T08:34:22.163Z,1532.00
2022-09-15T08:35:22.157Z,1524.00
2022-09-15T08:36:22.184Z,1736.00
2022-09-15T08:37:22.180Z,1760.00
2022-09-15T08:38:22.178Z,2660.00
2022-09-15T08:39:22.169Z,2148.00
2022-09-15T08:40:22.193Z,2252.00
2022-09-15T08:41:22.212Z,2364.00
2022-09-15T08:42:22.182Z,2412.00
2022-09-15T08:43:22.183Z,2516.00
2022-09-15T08:44:22.185Z,3216.00
2022-09-15T08:45:22.182Z,2296.00
2022-09-15T08:46:22.219Z,2516.00
2022-09-15T08:47:22.211Z,2320.00
2022-09-15T08:48:22.218Z,2140.00
2022-09-15T08:49:40.959Z,2096.00
2022-09-15T08:50:22.208Z,2044.00
2022-09-15T08:51:22.187Z,1916.00
2022-09-15T08:52:22.218Z,1720.00
2022-09-15T08:53:22.219Z,1432.00
2022-09-15T08:54:22.218Z,1296.00
2022-09-15T08:55:22.227Z,1196.00
2022-09-15T08:56:22.231Z,1300.00
2022-09-15T08:57:22.222Z,1172.00
2022-09-15T08:58:22.234Z,1180.00
2022-09-15T08:59:22.235Z,1364.00
2022-09-15T09:00:22.213Z,1528.00
2022-09-15T09:01:22.270Z,1500.00
2022-09-15T09:02:22.281Z,1360.00
2022-09-15T09:03:22.255Z,1216.00
2022-09-15T09:04:22.242Z,1280.00
2022-09-15T09:05:22.240Z,1092.00
2022-09-15T09:06:22.248Z,1016.00
2022-09-15T09:07:22.241Z,988.00
2022-09-15T09:08:22.252Z,1028.00
2022-09-15T09:09:22.242Z,936.00
2022-09-15T09:10:22.257Z,1044.00
2022-09-15T09:11:22.254Z,1212.00
2022-09-15T09:12:22.262Z,1256.00
2022-09-15T09:13:22.259Z,1184.00
2022-09-15T09:14:22.262Z,1084.00
2022-09-15T09:15:22.284Z,1032.00
2022-09-15T09:16:22.313Z,980.00
2022-09-15T09:17:22.277Z,964.00
2022-09-15T09:18:22.273Z,1064.00
2022-09-15T09:19:22.300Z,1084.00
2022-09-15T09:20:22.266Z,1172.00
2022-09-15T09:21:22.283Z,1240.00
2022-09-15T09:22:22.301Z,972.00
2022-09-15T09:23:22.290Z,700.00
2022-09-15T09:24:22.310Z,604.00
2022-09-15T09:25:27.657Z,636.00
2022-09-15T09:26:22.277Z,612.00
2022-09-15T09:27:22.298Z,652.00
2022-09-15T09:28:22.272Z,744.00
2022-09-15T09:29:22.656Z,800.00
2022-09-15T09:30:22.320Z,856.00
2022-09-15T09:31:22.336Z,952.00
2022-09-15T09:32:22.292Z,1120.00
2022-09-15T09:33:22.291Z,1120.00
2022-09-15T09:34:22.291Z,860.00
2022-09-15T09:35:22.325Z,888.00
2022-09-15T09:36:22.318Z,992.00
2022-09-15T09:37:22.305Z,1236.00
2022-09-15T09:38:22.317Z,1180.00
2022-09-15T09:39:22.315Z,1344.00
2022-09-15T09:40:22.405Z,1192.00
2022-09-15T09:41:22.335Z,1440.00
2022-09-15T09:42:29.349Z,1732.00
2022-09-15T09:43:22.311Z,2036.00
2022-09-15T09:44:22.318Z,1444.00
2022-09-15T09:45:22.323Z,1560.00
2022-09-15T09:46:22.405Z,1724.00
2022-09-15T09:47:22.321Z,1828.00
2022-09-15T09:48:22.330Z,2188.00
2022-09-15T09:49:22.317Z,2660.00
2022-09-15T09:50:22.338Z,2604.00
2022-09-15T09:51:22.349Z,3024.00
2022-09-15T09:52:22.352Z,1896.00
2022-09-15T09:53:22.329Z,2440.00
2022-09-15T09:54:22.341Z,3064.00
2022-09-15T09:55:22.343Z,2976.00
2022-09-15T09:56:22.356Z,3960.00
2022-09-15T09:57:22.352Z,4840.00
2022-09-15T09:58:22.363Z,5388.00
2022-09-15T09:59:22.359Z,11968.00
2022-09-15T10:00:22.345Z,4376.00
2022-09-15T10:01:22.412Z,5256.00
2022-09-15T10:02:22.361Z,5452.00
2022-09-15T10:03:22.408Z,5752.00
2022-09-15T10:04:22.431Z,6896.00
2022-09-15T10:05:22.373Z,5228.00
2022-09-15T10:06:22.413Z,9156.00
2022-09-15T10:07:22.372Z,5412.00
2022-09-15T10:08:22.403Z,13896.00
2022-09-15T10:09:22.379Z,8124.00
2022-09-15T10:10:22.374Z,8772.00
2022-09-15T10:11:22.377Z,17440.00
2022-09-15T10:12:22.450Z,18048.00
2022-09-15T10:13:22.391Z,20896.00
2022-09-15T10:14:22.407Z,4024.00
2022-09-15T10:15:22.399Z,4460.00
2022-09-15T10:16:22.529Z,3436.00
2022-09-15T10:17:22.409Z,13180.00
2022-09-15T10:18:22.402Z,3276.00
2022-09-15T10:19:22.413Z,2440.00
2022-09-15T10:21:53.986Z,4196.00
2022-09-15T10:22:54.008Z,2592.00
2022-09-15T10:23:54.121Z,3700.00
2022-09-15T10:24:54.020Z,6484.00
2022-09-15T10:26:01.051Z,3728.00
2022-09-15T10:26:54.030Z,3136.00
2022-09-15T10:27:54.051Z,1596.00
2022-09-15T10:28:54.665Z,4404.00
2022-09-15T10:42:18.437Z,42656.00
2022-09-15T10:42:54.977Z,43808.00
2022-09-15T10:54:13.402Z,42144.00
2022-09-15T10:55:11.897Z,12664.00
2022-09-15T10:56:13.223Z,45152.00
2022-09-15T10:57:10.874Z,46720.00
2022-09-15T10:58:10.329Z,16128.00
2022-09-15T10:59:10.112Z,24384.00
2022-09-15T11:00:13.379Z,50624.00
2022-09-15T11:01:12.573Z,3648.00
2022-09-15T11:02:10.180Z,1372.00
2022-09-15T11:03:10.136Z,1292.00
2022-09-15T11:04:10.120Z,836.00
2022-09-15T11:05:10.157Z,748.00
2022-09-15T11:06:10.159Z,736.00
2022-09-15T11:07:10.178Z,756.00
2022-09-15T11:08:10.247Z,1436.00
2022-09-15T11:09:10.203Z,2408.00
2022-09-15T11:10:10.238Z,2544.00
2022-09-15T11:11:10.194Z,2908.00
2022-09-15T11:12:10.191Z,3092.00
2022-09-15T11:13:10.202Z,31424.00
2022-09-15T11:14:10.226Z,3060.00
2022-09-15T11:15:10.206Z,30144.00
2022-09-15T11:16:10.260Z,23168.00
2022-09-15T11:17:10.220Z,3816.00
2022-09-15T11:18:10.230Z,1780.00
2022-09-15T11:19:10.238Z,1316.00
2022-09-15T11:20:10.236Z,1012.00
2022-09-15T11:21:10.264Z,944.00
2022-09-15T11:22:10.255Z,1152.00
2022-09-15T11:23:10.279Z,1180.00
2022-09-15T11:24:10.265Z,1016.00
2022-09-15T11:25:10.292Z,4160.00
2022-09-15T11:26:10.287Z,4772.00
2022-09-15T11:27:10.295Z,4824.00
2022-09-15T11:28:10.274Z,4648.00
2022-09-15T11:29:10.303Z,4792.00
2022-09-15T11:30:10.422Z,5332.00
2022-09-15T11:31:10.382Z,5672.00
2022-09-15T11:32:10.306Z,4120.00
2022-09-15T11:33:10.318Z,4256.00
2022-09-15T11:34:10.303Z,3684.00
2022-09-15T11:35:10.316Z,2640.00
2022-09-15T11:36:10.344Z,4376.00
2022-09-15T11:37:10.330Z,3896.00
2022-09-15T11:38:12.966Z,3896.00
2022-09-15T11:39:10.333Z,3488.00
2022-09-15T11:40:10.410Z,3656.00
2022-09-15T11:41:10.356Z,4144.00
2022-09-15T11:42:10.358Z,3712.00
2022-09-15T11:43:10.534Z,3508.00
2022-09-15T11:44:14.693Z,2636.00
2022-09-15T11:45:10.471Z,2572.00
2022-09-15T11:46:10.641Z,3300.00
2022-09-15T11:47:10.541Z,2896.00
2022-09-15T11:48:10.501Z,3060.00
2022-09-15T11:49:10.543Z,3144.00
2022-09-15T11:50:10.576Z,2552.00
2022-09-15T11:51:10.518Z,2600.00
2022-09-15T11:52:10.523Z,2044.00
2022-09-15T11:53:10.640Z,2036.00
2022-09-15T11:54:10.543Z,1992.00
2022-09-15T11:55:10.641Z,2068.00
2022-09-15T11:56:10.607Z,2664.00
2022-09-15T11:57:10.556Z,2508.00
2022-09-15T11:58:10.631Z,2152.00
2022-09-15T11:59:10.598Z,1376.00
2022-09-15T12:00:10.519Z,828.00
2022-09-15T12:01:10.708Z,700.00
2022-09-15T12:02:10.649Z,532.00
2022-09-15T12:03:10.564Z,404.00
2022-09-15T12:04:10.478Z,380.00
2022-09-15T12:05:11.123Z,424.00
2022-09-15T12:06:10.487Z,724.00
2022-09-15T12:07:13.712Z,1436.00
2022-09-15T12:08:10.504Z,1584.00
2022-09-15T12:26:44.640Z,1904.00
2022-09-15T12:27:44.316Z,1604.00
2022-09-15T12:32:01.843Z,988.00
2022-09-15T12:33:01.821Z,980.00
2022-09-15T12:38:33.176Z,1576.00
2022-09-15T12:39:06.005Z,1452.00
2022-09-15T12:39:54.583Z,972.00
2022-09-15T12:47:41.438Z,1544.00
2022-09-15T13:13:16.464Z,1192.00
2022-09-15T13:14:16.267Z,1196.00
2022-09-15T13:15:16.043Z,932.00
2022-09-15T13:18:22.290Z,972.00
2022-09-15T13:19:22.028Z,1124.00
2022-09-15T13:20:21.909Z,1248.00
2022-09-15T13:21:21.890Z,948.00
2022-09-15T13:22:21.916Z,1392.00
2022-09-15T13:23:21.862Z,876.00
2022-09-15T13:24:21.900Z,1504.00
2022-09-15T13:25:22.009Z,1480.00
2022-09-15T13:26:22.024Z,1076.00
2022-09-15T13:27:22.744Z,1180.00
2022-09-15T13:28:22.803Z,1096.00
2022-09-15T13:35:34.731Z,1076.00
2022-09-15T13:38:34.108Z,1052.00
2022-09-15T13:39:34.187Z,760.00
2022-09-15T13:40:34.269Z,844.00
2022-09-15T13:41:34.059Z,884.00
2022-09-15T13:42:34.068Z,748.00
2022-09-15T13:43:37.460Z,876.00
2022-09-15T13:44:34.094Z,932.00
2022-09-15T13:45:34.085Z,972.00
2022-09-15T13:46:34.202Z,888.00
2022-09-15T13:47:34.104Z,908.00
2022-09-15T13:48:34.106Z,1068.00
2022-09-15T13:49:34.099Z,884.00
2022-09-15T13:50:34.095Z,1000.00
2022-09-15T13:51:34.133Z,1108.00
2022-09-15T13:52:34.089Z,708.00
2022-09-15T13:53:34.125Z,864.00
2022-09-15T13:54:34.095Z,704.00
2022-09-15T13:55:34.115Z,644.00
2022-09-15T13:56:34.106Z,640.00
2022-09-15T13:59:34.118Z,532.00
2022-09-15T14:00:34.155Z,532.00
2022-09-15T14:01:34.193Z,448.00
2022-09-15T14:02:34.230Z,868.00
2022-09-15T14:03:34.205Z,912.00
2022-09-15T14:04:34.130Z,696.00
2022-09-15T14:08:40.908Z,716.00
2022-09-15T14:09:40.742Z,1160.00
2022-09-15T14:10:40.704Z,772.00
2022-09-15T14:11:40.833Z,776.00
2022-09-15T14:12:42.932Z,584.00
2022-09-15T14:15:26.723Z,552.00
2022-09-15T14:16:26.778Z,536.00
2022-09-15T14:17:27.106Z,664.00
2022-09-15T14:18:26.616Z,668.00
2022-09-15T14:19:26.625Z,876.00
2022-09-15T14:20:26.651Z,696.00
2022-09-15T14:21:27.113Z,712.00
2022-09-15T14:22:27.246Z,860.00
2022-09-15T14:23:26.690Z,768.00
2022-09-15T14:24:26.655Z,744.00
2022-09-15T14:25:26.622Z,564.00
2022-09-15T14:26:26.661Z,692.00
2022-09-15T14:27:26.674Z,756.00
2022-09-15T14:28:31.306Z,796.00
2022-09-15T14:29:26.624Z,660.00
2022-09-15T14:30:26.774Z,656.00
2022-09-15T14:31:26.662Z,852.00
2022-09-15T14:32:26.751Z,632.00
2022-09-15T14:33:26.705Z,716.00